Terminal Aerodrome Forecast
Issued by NWS

Home | Current Version | Previous Version | Text Only | Print | Product List | Glossary On
Versions: 1 2 3 4 5 6 7 8 9 10 11 12 13 14
000
FTUS43 KILX 251937 AAA
TAFDEC
TAF AMD
KDEC 251937Z 2520/2618 20018G26KT P6SM VCTS SCT030CB BKN250
      TEMPO 2520/2522 BKN025CB
     FM252200 19015G22KT P6SM VCTS SCT050CB BKN150
     FM260100 19008KT P6SM BKN050 BKN120
     FM261200 19010KT P6SM VCTS BKN050CB=

USA.gov is the U.S. government's official web portal to all federal, state and local government web resources and services.